Crawford, Tennessee
Current Conditions -  °F | °C
As of 8:53 AM on Thursday 23 Oct 2014 (Local Time) from KCSV Reporting Station
Clear Clear  
Wind Chill: 46°   Ceiling: Unl
Heat Index: 46°   Visibility: 10mi
Dew Point: 40°   Wind: 3mph
Humidity: 79%   Direction: NA
Pressure: 30.21"   Gusts: NA
Location:  36.27°N, 85.16°W
Report Text: KCSV 231353Z AUTO VRB03KT 10SM CLR 08/04 A3021 RMK AO2 SLP230 T00780044
Loading
Personal Weather Stations






























Interactive Weather Map
Tropical Storm Tracking
New forecast layout! Learn more

10-Day Weather Forecast

Advertisements
Track Severe Weather on mobile